Time;durP1;ratioP1;P1;durP2;ratioP2;P2;SDS_P1;SDS_P2;PMS_P1;PMS_P2;Temp;Humidity;BMP_temperature;BMP_pressure;BME280_temperature;BME280_humidity;BME280_pressure;Samples;Min_cycle;Max_cycle;Signal;HPM_P1;HPM_P2
2022/05/15 00:02:35;;;;;;;30.75;8.27;;;;;;;;;;5032913;28;20059;-58
2022/05/15 00:05:02;;;;;;;33.88;7.57;;;11.40;99.90;;;;;;5049280;28;20045;-58
2022/05/15 00:07:28;;;;;;;33.50;7.55;;;11.40;99.90;;;;;;5033740;28;20049;-58
2022/05/15 00:09:54;;;;;;;32.10;7.50;;;;;;;;;;5033703;28;20389;-58
2022/05/15 00:12:20;;;;;;;38.65;8.27;;;11.10;99.90;;;;;;5033560;28;20037;-57
2022/05/15 00:14:47;;;;;;;32.80;7.85;;;11.30;99.90;;;;;;5033596;28;20124;-58
2022/05/15 00:17:12;;;;;;;31.90;8.27;;;11.30;99.90;;;;;;5033542;28;20065;-58
2022/05/15 00:19:38;;;;;;;34.60;7.93;;;11.30;99.90;;;;;;5033150;28;20142;-57
2022/05/15 00:22:07;;;;;;;28.55;7.80;;;11.30;99.90;;;;;;5033491;28;20606;-57
2022/05/15 00:24:34;;;;;;;33.08;8.18;;;11.30;99.90;;;;;;5048266;28;20060;-57
2022/05/15 00:26:59;;;;;;;34.13;7.75;;;11.30;99.90;;;;;;5033524;28;20042;-57
2022/05/15 00:29:25;;;;;;;38.08;8.30;;;11.70;99.90;;;;;;5032759;28;20079;-57
2022/05/15 00:31:51;;;;;;;33.25;8.48;;;11.50;99.90;;;;;;5033154;28;20045;-57
2022/05/15 00:34:17;;;;;;;32.55;7.70;;;;;;;;;;5032861;28;20488;-57
2022/05/15 00:36:43;;;;;;;31.58;7.97;;;11.30;99.90;;;;;;5032230;28;20085;-57
2022/05/15 00:39:09;;;;;;;31.33;8.02;;;11.50;99.90;;;;;;5033107;28;20084;-57
2022/05/15 00:41:37;;;;;;;34.50;7.75;;;11.40;99.90;;;;;;5031786;28;20049;-57
2022/05/15 00:44:05;;;;;;;32.20;7.65;;;11.10;99.90;;;;;;5032893;28;20392;-57
2022/05/15 00:46:33;;;;;;;30.38;8.73;;;11.30;99.90;;;;;;5032369;28;20493;-57
2022/05/15 00:49:01;;;;;;;34.90;8.07;;;11.20;99.90;;;;;;5033198;28;20038;-57
2022/05/15 00:51:46;;;;;;;30.75;7.65;;;11.30;99.90;;;;;;5033011;28;20029;-57
2022/05/15 00:54:14;;;;;;;26.67;8.15;;;11.20;99.90;;;;;;5032804;28;20037;-57
2022/05/15 00:56:45;;;;;;;31.65;8.13;;;11.20;99.90;;;;;;5032619;28;20041;-57
2022/05/15 00:59:15;;;;;;;28.45;7.28;;;11.10;99.90;;;;;;5032605;28;20045;-57
2022/05/15 01:01:41;;;;;;;32.13;7.90;;;11.50;99.90;;;;;;5030677;28;20049;-58
2022/05/15 01:04:07;;;;;;;37.13;8.35;;;11.10;99.90;;;;;;5013167;28;20045;-57
2022/05/15 01:06:36;;;;;;;33.20;7.45;;;11.50;99.90;;;;;;5023987;28;20233;-57
2022/05/15 01:09:04;;;;;;;40.60;8.38;;;11.10;99.90;;;;;;5031658;28;20076;-57
2022/05/15 01:11:32;;;;;;;30.98;7.88;;;11.00;99.90;;;;;;5031838;28;20448;-57
2022/05/15 01:13:58;;;;;;;32.10;8.02;;;;;;;;;;5032385;28;20094;-57
2022/05/15 01:16:26;;;;;;;32.42;7.85;;;11.10;99.90;;;;;;5032523;28;20381;-58
2022/05/15 01:18:56;;;;;;;33.40;8.10;;;11.00;99.90;;;;;;5032412;28;20515;-57
2022/05/15 01:21:33;;;;;;;30.17;7.95;;;11.50;99.90;;;;;;5032052;28;20073;-57
2022/05/15 01:24:01;;;;;;;33.67;8.32;;;11.80;99.90;;;;;;5032135;28;20052;-57
2022/05/15 01:26:28;;;;;;;31.30;7.80;;;10.90;99.90;;;;;;5032457;28;20045;-57
2022/05/15 01:28:54;;;;;;;40.25;8.70;;;10.90;99.90;;;;;;5031947;28;20046;-57
2022/05/15 01:31:21;;;;;;;33.38;8.43;;;10.90;99.90;;;;;;5032312;28;20109;-57
2022/05/15 01:33:51;;;;;;;32.10;8.23;;;11.00;99.90;;;;;;5032023;28;20561;-57
2022/05/15 01:36:19;;;;;;;32.75;8.15;;;11.10;99.90;;;;;;5032247;28;20041;-57
2022/05/15 01:38:45;;;;;;;32.53;8.10;;;11.00;99.90;;;;;;5031733;28;20045;-57
2022/05/15 01:41:12;;;;;;;35.30;8.25;;;11.10;99.90;;;;;;5032172;28;20037;-57
2022/05/15 01:43:40;;;;;;;34.20;8.00;;;10.90;99.90;;;;;;5031267;28;20481;-57
2022/05/15 01:46:07;;;;;;;28.73;8.18;;;11.00;99.90;;;;;;5047333;28;20116;-57
2022/05/15 01:48:33;;;;;;;32.03;7.85;;;11.00;99.90;;;;;;5031823;28;20045;-57
2022/05/15 01:50:59;;;;;;;36.42;8.05;;;;;;;;;;5031878;28;20116;-57
2022/05/15 01:53:25;;;;;;;36.47;8.45;;;10.80;99.90;;;;;;5046846;28;20052;-57
2022/05/15 01:55:52;;;;;;;29.52;7.85;;;10.90;99.90;;;;;;5031638;28;20037;-57
2022/05/15 01:58:18;;;;;;;40.10;9.38;;;;;;;;;;5031398;28;20045;-57
2022/05/15 02:00:44;;;;;;;34.53;8.38;;;;;;;;;;5031140;28;20045;-57
2022/05/15 02:03:10;;;;;;;35.63;8.70;;;11.30;99.90;;;;;;5031377;28;20061;-57
2022/05/15 02:05:36;;;;;;;30.63;8.07;;;10.60;99.90;;;;;;5031608;28;20050;-57
2022/05/15 02:08:02;;;;;;;33.08;8.55;;;10.80;99.90;;;;;;5031104;28;20128;-57
2022/05/15 02:10:29;;;;;;;33.25;9.15;;;10.80;99.90;;;;;;5031201;28;20476;-57
2022/05/15 02:12:55;;;;;;;35.33;8.85;;;10.90;99.90;;;;;;5031182;28;20037;-57
2022/05/15 02:15:21;;;;;;;35.17;8.80;;;;;;;;;;5031183;28;20117;-57
2022/05/15 02:17:47;;;;;;;32.80;8.55;;;10.30;99.90;;;;;;5046888;28;20404;-57
2022/05/15 02:20:14;;;;;;;32.33;8.65;;;10.30;99.90;;;;;;5030349;28;20087;-57
2022/05/15 02:22:40;;;;;;;38.25;8.82;;;10.80;99.90;;;;;;5029936;28;20077;-57
2022/05/15 02:25:08;;;;;;;46.65;10.63;;;10.70;99.90;;;;;;5031356;28;20686;-57
2022/05/15 02:27:34;;;;;;;28.65;8.32;;;10.60;99.90;;;;;;5029460;28;20042;-57
2022/05/15 02:30:02;;;;;;;33.80;8.27;;;11.30;99.90;;;;;;5031163;28;20092;-57
2022/05/15 02:32:28;;;;;;;40.55;9.63;;;10.50;99.90;;;;;;5030602;28;20048;-57
2022/05/15 02:34:53;;;;;;;36.80;9.32;;;10.60;99.90;;;;;;5031035;28;20033;-57
2022/05/15 02:37:19;;;;;;;32.92;8.95;;;;;;;;;;5031360;28;20045;-57
2022/05/15 02:39:45;;;;;;;31.33;9.15;;;10.50;99.90;;;;;;5031061;28;20103;-57
2022/05/15 02:42:11;;;;;;;31.13;8.73;;;10.30;99.90;;;;;;5030807;28;20465;-58
2022/05/15 02:44:37;;;;;;;41.10;9.13;;;10.40;99.90;;;;;;5029467;28;20540;-57
2022/05/15 02:47:04;;;;;;;37.03;8.77;;;10.40;99.90;;;;;;5029603;28;20046;-58
2022/05/15 02:52:14;;;;;;;37.63;8.77;;;10.50;99.90;;;;;;5031052;28;20048;-57
2022/05/15 02:54:40;;;;;;;35.72;8.88;;;10.40;99.90;;;;;;5030753;28;20041;-57
2022/05/15 02:57:07;;;;;;;39.47;10.05;;;10.60;99.90;;;;;;5030525;28;20041;-57
2022/05/15 02:59:33;;;;;;;38.05;9.20;;;10.10;99.90;;;;;;5031080;28;20077;-57
2022/05/15 03:02:00;;;;;;;33.03;8.75;;;10.60;99.90;;;;;;5030386;28;20057;-57
2022/05/15 03:04:26;;;;;;;31.83;9.02;;;10.40;99.90;;;;;;5030784;28;20056;-57
2022/05/15 03:06:52;;;;;;;34.47;8.68;;;;;;;;;;5030933;28;20128;-57
2022/05/15 03:09:19;;;;;;;39.65;9.48;;;;;;;;;;5030597;28;20033;-57
2022/05/15 03:11:45;;;;;;;36.38;9.02;;;;;;;;;;5030344;28;20111;-57
2022/05/15 03:14:11;;;;;;;38.45;9.45;;;;;;;;;;5030647;28;20461;-57
2022/05/15 03:16:37;;;;;;;36.85;9.23;;;10.70;99.90;;;;;;5029385;28;20076;-57
2022/05/15 03:19:03;;;;;;;36.30;9.38;;;;;;;;;;5030485;28;20465;-57
2022/05/15 03:21:29;;;;;;;31.00;9.10;;;10.50;99.90;;;;;;5030758;28;20080;-57
2022/05/15 03:24:15;;;;;;;32.33;8.75;;;10.20;99.90;;;;;;5045982;28;20069;-57
2022/05/15 03:26:46;;;;;;;39.80;10.13;;;10.50;99.90;;;;;;5029888;28;20049;-57
2022/05/15 03:29:13;;;;;;;41.80;9.95;;;9.80;99.90;;;;;;5030205;28;20372;-58
2022/05/15 03:31:40;;;;;;;31.88;9.32;;;10.20;99.90;;;;;;5031656;28;20378;-61
2022/05/15 03:34:09;;;;;;;36.05;9.73;;;10.10;99.90;;;;;;5034519;28;20034;-61
2022/05/15 03:36:36;;;;;;;38.38;10.63;;;9.90;99.90;;;;;;5034365;28;20073;-61
2022/05/15 03:39:04;;;;;;;36.25;10.95;;;10.40;99.90;;;;;;5048967;28;20120;-61
2022/05/15 03:41:33;;;;;;;40.42;9.93;;;10.10;99.90;;;;;;5034128;28;20037;-61
2022/05/15 03:43:58;;;;;;;33.45;9.48;;;9.90;99.90;;;;;;5049633;28;20072;-60
2022/05/15 03:46:24;;;;;;;38.47;9.85;;;10.50;99.90;;;;;;5034215;28;20037;-61
2022/05/15 03:48:50;;;;;;;39.05;9.48;;;10.20;99.90;;;;;;5033987;28;20554;-61
2022/05/15 03:51:16;;;;;;;41.50;10.15;;;;;;;;;;5034076;28;20042;-61
2022/05/15 03:53:42;;;;;;;39.70;10.55;;;10.00;99.90;;;;;;5032405;28;20045;-61
2022/05/15 03:56:08;;;;;;;38.50;10.90;;;10.00;99.90;;;;;;5034073;28;20053;-61
2022/05/15 03:58:36;;;;;;;29.02;8.90;;;10.00;99.90;;;;;;5033402;28;20037;-57
2022/05/15 04:01:03;;;;;;;32.50;8.95;;;10.00;99.90;;;;;;5049157;28;20052;-57
2022/05/15 04:03:29;;;;;;;33.30;9.18;;;;;;;;;;5033598;28;20054;-57
2022/05/15 04:05:55;;;;;;;37.40;10.13;;;10.30;99.90;;;;;;5033856;28;20045;-61
2022/05/15 04:08:21;;;;;;;33.63;9.13;;;;;;;;;;5032922;28;20079;-61
2022/05/15 04:10:47;;;;;;;34.75;9.15;;;;;;;;;;5033427;28;20037;-61
2022/05/15 04:13:13;;;;;;;34.20;9.32;;;10.30;99.90;;;;;;5033975;28;20040;-61
2022/05/15 04:15:39;;;;;;;30.73;8.45;;;10.50;99.90;;;;;;5032208;28;20034;-61
2022/05/15 04:18:05;;;;;;;28.35;8.02;;;10.30;99.90;;;;;;5033508;28;20343;-61
2022/05/15 04:20:32;;;;;;;31.23;8.40;;;10.20;99.90;;;;;;5033387;28;20049;-61
2022/05/15 04:22:58;;;;;;;33.38;8.85;;;;;;;;;;5031975;28;20045;-61
2022/05/15 04:25:24;;;;;;;24.80;8.18;;;10.40;99.90;;;;;;5033077;28;20041;-61
2022/05/15 04:27:50;;;;;;;26.98;7.70;;;10.90;99.90;;;;;;5033417;28;20254;-61
2022/05/15 04:30:23;;;;;;;34.25;8.13;;;13.40;99.90;;;;;;5033538;28;20052;-61
2022/05/15 04:32:51;;;;;;;27.08;7.80;;;;;;;;;;5033340;28;20047;-61
2022/05/15 04:35:17;;;;;;;35.97;7.97;;;11.00;99.90;;;;;;5033415;28;20087;-61
2022/05/15 04:37:44;;;;;;;32.70;7.82;;;;;;;;;;5032745;28;20043;-61
2022/05/15 04:40:12;;;;;;;22.80;6.75;;;11.40;99.90;;;;;;5033043;28;20052;-61
2022/05/15 04:42:38;;;;;;;28.60;7.13;;;11.90;99.90;;;;;;5032303;28;20052;-61
2022/05/15 04:45:04;;;;;;;24.40;6.93;;;13.50;99.90;;;;;;5032884;28;20053;-61
2022/05/15 04:47:30;;;;;;;31.05;7.13;;;;;;;;;;5032593;28;20080;-61
2022/05/15 04:49:56;;;;;;;25.85;6.70;;;14.70;99.90;;;;;;5032854;28;20400;-61
2022/05/15 04:52:22;;;;;;;22.15;6.30;;;14.80;99.90;;;;;;5032256;28;20037;-61
2022/05/15 04:54:48;;;;;;;24.85;6.45;;;15.10;99.90;;;;;;5033168;28;20049;-61
2022/05/15 04:57:14;;;;;;;24.85;6.10;;;15.50;99.90;;;;;;5031940;28;20120;-61
2022/05/15 04:59:39;;;;;;;26.08;6.55;;;16.50;99.90;;;;;;5032677;28;20069;-61
2022/05/15 05:02:05;;;;;;;25.38;6.40;;;16.70;99.90;;;;;;5032299;28;20040;-61
2022/05/15 05:04:31;;;;;;;23.88;6.72;;;16.60;99.90;;;;;;5032509;28;20528;-57
2022/05/15 05:06:57;;;;;;;21.95;6.07;;;17.10;99.90;;;;;;5047564;28;20124;-57
2022/05/15 05:09:24;;;;;;;20.70;6.18;;;17.00;99.90;;;;;;5032451;28;20050;-58
2022/05/15 05:11:50;;;;;;;22.95;6.82;;;17.00;99.90;;;;;;5032559;28;20045;-57
2022/05/15 05:14:19;;;;;;;21.27;6.25;;;17.40;99.90;;;;;;5032794;28;20045;-57
2022/05/15 05:16:45;;;;;;;24.60;6.68;;;17.90;99.90;;;;;;5032379;28;20112;-57
2022/05/15 05:19:10;;;;;;;26.70;7.00;;;18.60;99.90;;;;;;5032355;28;20176;-57
2022/05/15 05:21:36;;;;;;;25.80;6.90;;;18.60;99.90;;;;;;5031485;28;20045;-58
2022/05/15 05:24:02;;;;;;;23.58;6.43;;;19.00;99.90;;;;;;5030816;28;20045;-58
2022/05/15 05:26:28;;;;;;;23.58;6.88;;;19.80;98.30;;;;;;5047748;28;20041;-58
2022/05/15 05:28:54;;;;;;;27.10;6.68;;;;;;;;;;5032278;28;20064;-57
2022/05/15 05:31:19;;;;;;;18.92;6.65;;;19.70;94.40;;;;;;5032171;28;20045;-58
2022/05/15 05:33:45;;;;;;;26.92;7.03;;;20.10;94.50;;;;;;5046950;28;20075;-58
2022/05/15 05:36:12;;;;;;;19.65;6.35;;;20.40;81.50;;;;;;5031962;28;20045;-58
2022/05/15 05:38:37;;;;;;;20.17;6.20;;;20.80;90.60;;;;;;5031862;28;20033;-58
2022/05/15 05:41:03;;;;;;;31.83;6.13;;;21.10;90.10;;;;;;5032119;28;20471;-58
2022/05/15 05:43:29;;;;;;;19.05;5.88;;;20.90;88.40;;;;;;5030621;28;20037;-58
2022/05/15 05:45:54;;;;;;;21.58;6.30;;;21.30;87.90;;;;;;5047529;28;20045;-58
2022/05/15 05:48:21;;;;;;;17.00;5.47;;;;;;;;;;5031385;28;20037;-58
2022/05/15 05:50:47;;;;;;;17.45;5.13;;;;;;;;;;5046764;28;20087;-58
2022/05/15 05:53:12;;;;;;;22.45;6.13;;;21.70;80.20;;;;;;5031925;28;20044;-58
2022/05/15 05:55:38;;;;;;;19.77;5.55;;;21.30;79.80;;;;;;5031488;28;20408;-58
2022/05/15 05:58:04;;;;;;;17.63;5.70;;;21.80;78.80;;;;;;5030363;28;20400;-58
2022/05/15 06:00:33;;;;;;;18.75;5.72;;;22.60;77.70;;;;;;5031718;28;20044;-58
2022/05/15 06:05:44;;;;;;;18.52;5.95;;;23.00;75.00;;;;;;5031173;28;20045;-58
2022/05/15 06:08:10;;;;;;;16.85;5.75;;;23.80;69.50;;;;;;5031761;28;20038;-58
2022/05/15 06:10:37;;;;;;;17.52;5.63;;;23.80;71.30;;;;;;5031293;28;20041;-58
2022/05/15 06:13:03;;;;;;;19.13;5.57;;;24.10;71.40;;;;;;5031566;28;20049;-58
2022/05/15 06:15:28;;;;;;;20.70;5.93;;;24.40;63.80;;;;;;5030957;28;20155;-58
2022/05/15 06:17:58;;;;;;;13.80;4.90;;;24.70;69.60;;;;;;5031447;28;20513;-58
2022/05/15 06:20:24;;;;;;;16.77;5.40;;;24.70;64.90;;;;;;5029799;28;20045;-59
2022/05/15 06:22:50;;;;;;;18.98;5.38;;;;;;;;;;5031229;28;20044;-58
2022/05/15 06:25:15;;;;;;;15.63;5.00;;;24.00;68.10;;;;;;5030861;28;20171;-58
2022/05/15 06:27:41;;;;;;;14.32;4.85;;;24.40;62.90;;;;;;5031356;28;20068;-58
2022/05/15 06:30:08;;;;;;;18.63;4.95;;;23.90;66.90;;;;;;5031223;28;20040;-58
2022/05/15 06:32:34;;;;;;;16.50;5.07;;;24.60;62.30;;;;;;5012654;28;20455;-58
2022/05/15 06:34:59;;;;;;;13.65;5.00;;;24.70;67.40;;;;;;5030912;28;20045;-58
2022/05/15 06:37:26;;;;;;;12.68;4.55;;;24.60;65.90;;;;;;5031213;28;20116;-58
2022/05/15 06:39:51;;;;;;;17.20;4.90;;;24.50;65.40;;;;;;5031002;28;20592;-58
2022/05/15 06:42:17;;;;;;;13.93;5.07;;;24.50;65.30;;;;;;5046518;28;20116;-58
2022/05/15 06:44:43;;;;;;;14.40;4.75;;;24.00;65.30;;;;;;5029919;28;20064;-58
2022/05/15 06:47:10;;;;;;;17.70;5.35;;;23.90;65.90;;;;;;5027807;28;20044;-61
2022/05/15 06:49:36;;;;;;;17.98;5.18;;;;;;;;;;5028190;28;20040;-62
2022/05/15 06:52:02;;;;;;;17.40;5.30;;;23.60;62.00;;;;;;5029589;28;20045;-59
2022/05/15 06:54:28;;;;;;;15.55;4.95;;;22.80;65.00;;;;;;5029324;28;20063;-58
2022/05/15 06:59:39;;;;;;;13.30;4.90;;;23.90;65.70;;;;;;5019945;28;20052;-58
2022/05/15 07:02:05;;;;;;;17.05;5.20;;;;;;;;;;5028815;28;20120;-59
2022/05/15 07:04:30;;;;;;;16.13;4.88;;;23.80;65.80;;;;;;5029508;28;20506;-58
2022/05/15 07:06:56;;;;;;;17.00;5.20;;;;;;;;;;5030911;28;20037;-59
2022/05/15 07:09:22;;;;;;;12.77;4.90;;;23.80;63.60;;;;;;5034224;28;20039;-59
2022/05/15 07:11:48;;;;;;;18.83;5.63;;;;;;;;;;5034233;28;20396;-58
2022/05/15 07:14:14;;;;;;;15.57;4.88;;;25.70;63.80;;;;;;5033665;28;20495;-59
2022/05/15 07:16:40;;;;;;;18.63;5.28;;;25.10;64.30;;;;;;5033427;28;20128;-59
2022/05/15 07:19:06;;;;;;;17.38;4.70;;;25.20;50.40;;;;;;5033976;28;20038;-59
2022/05/15 07:21:32;;;;;;;16.75;4.57;;;24.90;64.40;;;;;;5033351;28;20044;-59
2022/05/15 07:23:58;;;;;;;16.88;5.20;;;24.50;65.10;;;;;;5033449;28;20124;-59
2022/05/15 07:26:24;;;;;;;16.90;4.78;;;25.10;66.10;;;;;;5016991;28;20050;-59
2022/05/15 07:28:51;;;;;;;18.55;5.10;;;25.20;66.00;;;;;;5026531;28;20041;-59
2022/05/15 07:31:18;;;;;;;15.93;4.60;;;23.50;65.70;;;;;;5033713;28;20041;-59
2022/05/15 07:33:45;;;;;;;19.17;4.93;;;25.20;55.80;;;;;;5034019;28;20429;-59
2022/05/15 07:36:11;;;;;;;15.98;4.88;;;23.80;68.20;;;;;;5034416;28;20500;-59
2022/05/15 07:38:37;;;;;;;16.98;5.05;;;;;;;;;;5033943;28;20049;-59
2022/05/15 07:41:03;;;;;;;19.25;4.85;;;22.50;68.90;;;;;;5016545;28;20060;-59
2022/05/15 07:43:29;;;;;;;17.13;5.32;;;22.60;70.80;;;;;;5033309;28;20477;-59
2022/05/15 07:45:55;;;;;;;16.27;5.18;;;22.60;70.60;;;;;;5034167;28;20053;-59
2022/05/15 07:48:20;;;;;;;18.45;4.68;;;22.90;71.40;;;;;;5032702;28;20187;-59
2022/05/15 07:50:48;;;;;;;18.45;4.75;;;22.90;71.20;;;;;;5034247;28;20040;-59
2022/05/15 07:53:14;;;;;;;17.88;4.53;;;22.40;70.10;;;;;;5033834;28;20481;-59
2022/05/15 07:55:40;;;;;;;16.63;4.85;;;23.00;70.80;;;;;;5033471;28;20037;-59
2022/05/15 07:58:06;;;;;;;13.80;4.45;;;;;;;;;;5033801;28;20042;-59
2022/05/15 08:00:31;;;;;;;16.50;4.30;;;21.90;71.40;;;;;;5033869;28;20049;-59
2022/05/15 08:03:07;;;;;;;14.18;4.18;;;21.80;71.20;;;;;;5032311;28;20053;-59
2022/05/15 08:08:19;;;;;;;;;;;21.70;59.60;;;;;;5034015;28;20045;-59
2022/05/15 08:10:46;;;;;;;16.15;4.82;;;21.20;72.60;;;;;;5033938;28;19917;-59
2022/05/15 08:13:17;;;;;;;17.67;4.78;;;21.20;67.40;;;;;;5033529;28;20072;-59
2022/05/15 08:15:43;;;;;;;24.95;4.68;;;21.40;72.60;;;;;;5033280;28;20045;-59
2022/05/15 08:24:01;;;;;;;17.02;4.60;;;21.50;71.70;;;;;;5033117;28;20104;-59
2022/05/15 08:26:28;;;;;;;22.17;4.65;;;21.60;71.90;;;;;;5033234;28;20394;-59
2022/05/15 08:28:54;;;;;;;22.27;4.70;;;21.20;71.50;;;;;;5033049;28;20053;-59
2022/05/15 08:31:22;;;;;;;17.70;4.55;;;21.40;65.40;;;;;;5032010;28;20075;-59
2022/05/15 08:33:49;;;;;;;16.80;4.70;;;21.10;71.70;;;;;;5033297;28;20049;-59
2022/05/15 08:36:15;;;;;;;20.65;4.63;;;21.30;72.00;;;;;;5033637;28;20112;-59
2022/05/15 08:38:41;;;;;;;15.10;4.30;;;20.60;71.30;;;;;;5031731;28;20041;-59
2022/05/15 08:41:31;;;;;;;17.80;4.43;;;20.60;71.40;;;;;;5015416;28;20378;-59
2022/05/15 08:44:09;;;;;;;13.57;4.38;;;21.00;72.10;;;;;;5032767;28;20041;-58
2022/05/15 08:46:51;;;;;;;13.98;4.22;;;21.00;60.00;;;;;;5031643;28;20099;-59
2022/05/15 08:49:30;;;;;;;23.10;5.20;;;20.90;72.40;;;;;;5032724;28;20033;-59
2022/05/15 08:52:11;;;;;;;19.20;4.60;;;21.30;60.00;;;;;;5033360;28;20076;-59
2022/05/15 08:54:54;;;;;;;20.92;5.35;;;21.20;72.00;;;;;;5032684;28;20315;-60
2022/05/15 08:57:29;;;;;;;18.90;5.05;;;21.30;73.10;;;;;;5031650;28;20046;-59
2022/05/15 08:59:58;;;;;;;25.38;4.63;;;19.00;70.40;;;;;;5032256;28;20042;-58
2022/05/15 09:02:25;;;;;;;34.47;4.78;;;21.20;72.00;;;;;;5032442;28;20065;-58
2022/05/15 09:04:54;;;;;;;13.60;4.15;;;21.90;72.00;;;;;;5032666;28;20499;-58
2022/05/15 09:08:08;;;;;;;22.45;4.50;;;22.10;71.40;;;;;;5033204;28;20401;-58
2022/05/15 09:10:42;;;;;;;23.85;5.20;;;22.00;69.60;;;;;;5032495;28;20068;-58
2022/05/15 09:13:11;;;;;;;14.93;4.28;;;22.30;58.60;;;;;;5032171;28;20041;-58
2022/05/15 09:16:01;;;;;;;14.70;4.30;;;21.90;71.90;;;;;;5032279;28;20140;-58
2022/05/15 09:18:28;;;;;;;16.27;4.28;;;22.80;70.10;;;;;;5031998;28;20056;-59
2022/05/15 09:20:57;;;;;;;19.48;4.57;;;22.70;68.90;;;;;;5032762;28;20038;-59
2022/05/15 09:23:50;;;;;;;21.35;5.20;;;22.90;67.60;;;;;;5032002;28;20083;-59
2022/05/15 09:26:22;;;;;;;21.75;4.97;;;23.10;67.20;;;;;;5032305;28;20060;-59
2022/05/15 09:28:53;;;;;;;23.08;4.70;;;23.20;68.60;;;;;;5031500;28;20172;-59
2022/05/15 09:31:24;;;;;;;21.30;5.03;;;22.80;66.00;;;;;;5030956;28;20037;-59
2022/05/15 09:33:57;;;;;;;17.85;4.20;;;22.60;67.20;;;;;;5031952;28;20045;-59
2022/05/15 09:36:40;;;;;;;19.73;4.50;;;22.80;68.20;;;;;;5031916;28;20048;-59
2022/05/15 09:39:25;;;;;;;18.58;4.82;;;22.70;57.40;;;;;;5032122;28;20075;-57
2022/05/15 09:45:07;;;;;;;27.85;5.38;;;24.30;65.10;;;;;;5031938;28;20071;-57
2022/05/15 09:47:40;;;;;;;21.50;4.88;;;23.40;64.40;;;;;;5031740;28;20069;-57
2022/05/15 09:50:30;;;;;;;19.30;4.50;;;23.00;65.20;;;;;;5030767;28;20473;-57
2022/05/15 09:52:57;;;;;;;21.95;5.03;;;23.10;65.50;;;;;;5031964;28;20073;-57
2022/05/15 09:55:27;;;;;;;17.83;4.38;;;22.90;55.50;;;;;;5031489;28;20087;-57
2022/05/15 09:57:59;;;;;;;20.73;5.22;;;22.00;65.10;;;;;;5030862;28;20041;-57
2022/05/15 10:00:32;;;;;;;21.35;5.22;;;22.90;65.60;;;;;;5031538;28;20493;-57
2022/05/15 10:03:22;;;;;;;28.00;5.00;;;23.00;65.60;;;;;;5030352;28;20057;-57
2022/05/15 10:05:58;;;;;;;17.45;4.57;;;23.20;55.60;;;;;;5032004;28;20129;-56
2022/05/15 10:08:27;;;;;;;17.50;4.53;;;23.80;63.70;;;;;;5030413;28;20045;-56
2022/05/15 10:11:00;;;;;;;22.75;5.15;;;23.30;54.70;;;;;;5030989;28;20030;-56
2022/05/15 10:13:50;;;;;;;17.98;4.70;;;22.70;62.30;;;;;;5030220;28;20120;-56
2022/05/15 10:16:32;;;;;;;19.83;4.60;;;23.30;54.10;;;;;;5030674;28;20108;-56
2022/05/15 10:19:04;;;;;;;23.42;4.82;;;23.30;53.60;;;;;;5029405;28;20037;-56
2022/05/15 10:21:39;;;;;;;20.88;5.57;;;22.80;63.10;;;;;;5031464;28;20065;-56
2022/05/15 10:24:09;;;;;;;18.98;5.05;;;23.10;54.60;;;;;;5046656;28;20037;-56
2022/05/15 10:26:58;;;;;;;21.65;5.05;;;23.20;54.40;;;;;;5030576;28;20103;-56
2022/05/15 10:29:36;;;;;;;15.77;4.53;;;23.20;53.40;;;;;;5030922;28;20034;-56
2022/05/15 10:32:17;;;;;;;22.05;4.70;;;23.20;54.70;;;;;;5031163;28;20045;-56
2022/05/15 10:34:44;;;;;;;25.08;5.15;;;23.50;54.30;;;;;;5031089;28;20072;-56
2022/05/15 10:37:19;;;;;;;23.80;4.78;;;23.60;54.10;;;;;;5029661;28;20099;-56
2022/05/15 10:40:22;;;;;;;20.55;5.35;;;24.00;62.40;;;;;;5030333;28;20041;-56
2022/05/15 10:43:07;;;;;;;20.60;4.82;;;23.90;61.60;;;;;;5030382;28;20037;-56
2022/05/15 10:46:10;;;;;;;18.88;4.60;;;24.70;61.80;;;;;;5030981;28;20099;-57
2022/05/15 10:48:56;;;;;;;32.08;4.70;;;23.20;59.70;;;;;;5010599;28;20046;-57
2022/05/15 10:51:26;;;;;;;15.05;4.40;;;23.30;60.20;;;;;;5013483;28;20117;-56
2022/05/15 10:57:21;;;;;;;15.15;4.18;;;23.30;49.50;;;;;;5030865;28;20107;-58
2022/05/15 11:00:00;;;;;;;17.70;4.18;;;23.40;60.00;;;;;;5030905;28;20058;-57
2022/05/15 11:03:03;;;;;;;17.40;4.60;;;23.20;51.00;;;;;;5030547;28;20496;-56
2022/05/15 11:05:30;;;;;;;22.25;4.60;;;23.20;60.30;;;;;;5029799;28;20067;-56
2022/05/15 11:08:21;;;;;;;18.30;4.88;;;23.30;51.90;;;;;;5030303;28;20389;-56
2022/05/15 11:11:07;;;;;;;17.58;4.70;;;23.40;52.50;;;;;;5029001;28;20392;-57
2022/05/15 11:13:46;;;;;;;19.77;4.40;;;23.10;59.80;;;;;;5030340;28;20041;-56
2022/05/15 11:16:44;;;;;;;15.65;4.20;;;23.60;52.70;;;;;;5028337;28;20084;-57
2022/05/15 11:19:34;;;;;;;17.30;4.38;;;23.80;52.00;;;;;;5030765;28;20492;-56
2022/05/15 11:22:22;;;;;;;29.88;5.25;;;23.90;50.90;;;;;;5030466;28;20049;-56
2022/05/15 11:25:19;;;;;;;21.58;4.60;;;23.90;59.60;;;;;;5028999;28;20072;-56
2022/05/15 11:27:57;;;;;;;15.60;4.35;;;23.80;50.40;;;;;;5030510;28;20041;-57
2022/05/15 11:30:32;;;;;;;14.57;4.60;;;23.90;50.70;;;;;;5030735;28;20034;-57
2022/05/15 11:33:03;;;;;;;15.02;4.03;;;24.00;50.50;;;;;;5031028;28;20044;-57
2022/05/15 11:35:35;;;;;;;12.73;4.07;;;24.00;50.50;;;;;;5031061;28;20781;-57
2022/05/15 11:38:06;;;;;;;14.00;3.80;;;24.00;59.00;;;;;;5031124;28;20042;-57
2022/05/15 11:40:50;;;;;;;12.82;3.80;;;24.10;58.80;;;;;;5030851;28;20088;-56
2022/05/15 11:43:28;;;;;;;12.97;3.77;;;24.30;55.20;;;;;;5030895;28;20558;-56
2022/05/15 11:45:58;;;;;;;13.25;4.00;;;24.40;47.10;;;;;;5031173;28;20054;-59
2022/05/15 11:48:30;;;;;;;19.50;4.25;;;24.60;47.90;;;;;;5030460;28;20042;-60
2022/05/15 11:50:58;;;;;;;13.48;4.00;;;24.80;48.20;;;;;;5031077;28;20046;-59
2022/05/15 11:53:46;;;;;;;11.02;3.63;;;24.90;47.90;;;;;;5031947;28;20079;-59
2022/05/15 11:56:21;;;;;;;15.73;3.83;;;24.70;46.80;;;;;;5027405;28;20053;-58
2022/05/15 11:58:56;;;;;;;14.15;4.13;;;24.20;54.90;;;;;;5034250;28;20045;-60
2022/05/15 12:01:25;;;;;;;13.63;3.85;;;24.50;46.40;;;;;;5034118;28;20049;-60
2022/05/15 12:04:00;;;;;;;15.65;3.75;;;24.60;46.90;;;;;;5032095;28;20061;-60
2022/05/15 12:06:58;;;;;;;13.73;3.40;;;24.70;46.40;;;;;;5033689;28;20048;-56
2022/05/15 12:09:29;;;;;;;11.60;4.00;;;24.90;45.80;;;;;;5016606;28;20056;-56
2022/05/15 12:11:58;;;;;;;15.40;4.50;;;25.20;55.60;;;;;;5034045;28;20041;-56
2022/05/15 12:14:27;;;;;;;15.70;3.95;;;25.10;53.50;;;;;;5049396;28;20121;-57
2022/05/15 12:17:25;;;;;;;12.27;3.83;;;25.30;45.60;;;;;;5034445;28;20041;-56
2022/05/15 12:19:58;;;;;;;16.33;4.35;;;25.50;45.50;;;;;;5032675;28;20548;-56
2022/05/15 12:22:23;;;;;;;17.77;3.78;;;25.40;45.20;;;;;;5033936;28;20068;-57
2022/05/15 12:24:49;;;;;;;16.08;4.07;;;25.40;45.20;;;;;;5033606;28;20566;-56
2022/05/15 12:27:21;;;;;;;13.25;4.07;;;25.40;45.00;;;;;;5033608;28;20205;-56
2022/05/15 12:30:22;;;;;;;17.45;3.85;;;25.40;45.10;;;;;;5032183;28;20111;-56
2022/05/15 12:33:06;;;;;;;15.85;3.70;;;25.50;45.30;;;;;;5030624;28;20048;-61
2022/05/15 12:35:35;;;;;;;16.55;4.10;;;25.70;44.10;;;;;;5033286;28;20042;-61
2022/05/15 12:38:05;;;;;;;14.55;3.95;;;25.80;43.90;;;;;;5033383;28;20374;-61
2022/05/15 12:40:33;;;;;;;13.32;4.30;;;25.80;43.00;;;;;;5031781;28;20045;-61
2022/05/15 12:43:01;;;;;;;11.55;3.90;;;25.60;48.90;;;;;;5032206;28;20044;-60
2022/05/15 12:45:27;;;;;;;17.38;3.97;;;25.60;43.20;;;;;;5032842;28;20037;-60
2022/05/15 12:48:02;;;;;;;13.32;3.80;;;25.50;43.10;;;;;;5033305;28;20151;-61
2022/05/15 12:50:28;;;;;;;;;;;25.30;43.30;;;;;;5033282;28;20041;-61
2022/05/15 12:52:56;;;;;;;13.77;3.92;;;25.80;51.90;;;;;;5033064;28;19924;-61
2022/05/15 12:55:29;;;;;;;12.20;3.65;;;25.60;43.90;;;;;;5032960;28;20042;-61
2022/05/15 12:57:57;;;;;;;11.68;3.72;;;25.70;43.00;;;;;;5032851;28;20042;-61
2022/05/15 13:00:32;;;;;;;11.77;3.67;;;25.80;43.20;;;;;;5032682;28;20051;-61
2022/05/15 13:03:04;;;;;;;13.52;3.90;;;26.00;50.90;;;;;;5032552;28;20103;-60
2022/05/15 13:05:34;;;;;;;15.00;3.70;;;26.30;50.70;;;;;;5031881;28;20116;-61
2022/05/15 13:08:04;;;;;;;11.40;3.40;;;25.90;50.10;;;;;;5032537;28;20120;-61
2022/05/15 13:10:32;;;;;;;12.38;3.72;;;26.70;49.30;;;;;;5032078;28;20045;-61
2022/05/15 13:13:14;;;;;;;12.93;3.33;;;25.90;41.30;;;;;;5032657;28;20495;-61
2022/05/15 13:15:45;;;;;;;13.88;3.40;;;25.60;50.10;;;;;;5032608;28;20077;-61
2022/05/15 13:18:11;;;;;;;16.08;3.67;;;25.70;42.10;;;;;;5032552;28;20037;-61
2022/05/15 13:20:39;;;;;;;16.17;3.60;;;25.80;42.00;;;;;;5030740;28;20083;-61
2022/05/15 13:23:08;;;;;;;12.70;3.58;;;25.60;41.50;;;;;;5032058;28;20045;-61
2022/05/15 13:25:42;;;;;;;13.88;3.60;;;25.60;41.90;;;;;;5032470;28;20091;-61
2022/05/15 13:28:09;;;;;;;12.57;3.53;;;25.80;41.40;;;;;;5032057;28;20048;-61